createdAt,value
2019-02-20T20:48:34.516Z,38.39
2019-02-20T20:51:19.928Z,38.54
2019-02-20T20:54:22.175Z,38.66
2019-02-20T20:57:24.382Z,38.66
2019-02-20T21:00:17.401Z,38.65
2019-02-20T21:02:55.539Z,38.59
2019-02-20T21:05:57.548Z,38.78
2019-02-20T21:08:42.829Z,38.84
2019-02-20T21:11:36.136Z,38.85
2019-02-20T21:14:36.512Z,38.77
2019-02-20T21:17:21.809Z,38.76
2019-02-20T21:20:05.227Z,38.73
2019-02-20T21:22:59.889Z,38.59
2019-02-20T21:25:42.111Z,38.55
2019-02-20T21:28:41.485Z,38.56
2019-02-20T21:31:18.012Z,38.84
2019-02-20T21:34:08.452Z,38.92
2019-02-20T21:36:44.535Z,39.08
2019-02-20T21:39:23.730Z,39.15
2019-02-20T21:42:12.239Z,39.18
2019-02-20T21:44:54.280Z,39.24
2019-02-20T21:48:02.436Z,39.38
2019-02-20T21:50:38.924Z,39.43
2019-02-20T21:53:32.145Z,39.63
2019-02-20T21:56:14.396Z,39.70
2019-02-20T21:59:05.678Z,39.83
2019-02-20T22:02:02.175Z,39.98
2019-02-20T22:04:50.166Z,40.01
2019-02-20T22:07:52.509Z,40.12
2019-02-20T22:10:31.681Z,40.15
2019-02-20T22:13:25.507Z,40.33
2019-02-20T22:16:21.294Z,40.44
2019-02-20T22:19:03.589Z,40.86
2019-02-20T22:22:02.897Z,40.75
2019-02-20T22:24:39.765Z,40.85
2019-02-20T22:27:35.857Z,40.82
2019-02-20T22:30:30.127Z,40.87
2019-02-20T22:33:15.581Z,40.85
2019-02-20T22:36:11.844Z,40.96
2019-02-20T22:38:48.469Z,41.25
2019-02-20T22:41:39.767Z,41.06
2019-02-20T22:44:18.983Z,41.17
2019-02-20T22:47:07.130Z,41.21
2019-02-20T22:49:52.135Z,41.15
2019-02-20T22:52:31.550Z,41.20
2019-02-20T22:55:33.118Z,41.33
2019-02-20T22:58:12.508Z,41.38
2019-02-20T23:01:20.994Z,41.38
2019-02-20T23:04:17.587Z,41.49
2019-02-20T23:06:56.789Z,41.53
2019-02-20T23:09:54.205Z,41.56
2019-02-20T23:12:48.828Z,41.57
2019-02-20T23:15:22.063Z,41.71
2019-02-20T23:17:55.313Z,41.83
2019-02-20T23:20:28.816Z,41.77
2019-02-20T23:23:02.319Z,41.83
2019-02-20T23:25:35.554Z,41.90
2019-02-20T23:28:08.826Z,41.85
2019-02-20T23:30:42.061Z,42.01
2019-02-20T23:33:15.297Z,42.00
2019-02-20T23:35:48.531Z,41.99
2019-02-20T23:38:22.739Z,42.02
2019-02-20T23:40:57.506Z,41.99
2019-02-20T23:43:30.790Z,42.12
2019-02-20T23:46:04.021Z,42.06
2019-02-20T23:48:37.265Z,42.16
2019-02-20T23:51:10.498Z,42.11
2019-02-20T23:53:43.749Z,42.09
2019-02-20T23:56:16.978Z,42.22
2019-02-20T23:58:50.236Z,42.23
